createdAt,value
2023-01-23T00:00:05.753Z,1016.22
2023-01-23T00:01:05.769Z,1016.26
2023-01-23T00:02:05.840Z,1016.24
2023-01-23T00:03:05.794Z,1016.25
2023-01-23T00:04:05.907Z,1016.21
2023-01-23T00:05:05.824Z,1016.22
2023-01-23T00:06:05.830Z,1016.2
2023-01-23T00:07:05.846Z,1016.18
2023-01-23T00:08:05.863Z,1016.2
2023-01-23T00:09:05.877Z,1016.23
2023-01-23T00:10:05.896Z,1016.19
2023-01-23T00:11:05.897Z,1016.15
2023-01-23T00:12:05.917Z,1016.16
2023-01-23T00:13:06.047Z,1016.18
2023-01-23T00:14:05.940Z,1016.2
2023-01-23T00:15:06.731Z,1016.19
2023-01-23T00:16:06.012Z,1016.22
2023-01-23T00:17:05.981Z,1016.25
2023-01-23T00:18:05.988Z,1016.23
2023-01-23T00:19:06.005Z,1016.22
2023-01-23T00:20:06.016Z,1016.25
2023-01-23T00:21:06.030Z,1016.23
2023-01-23T00:22:06.037Z,1016.2
2023-01-23T00:23:06.078Z,1016.24
2023-01-23T00:24:06.067Z,1016.18
2023-01-23T00:25:06.079Z,1016.15
2023-01-23T00:26:06.091Z,1016.18
2023-01-23T00:27:06.106Z,1016.12
2023-01-23T00:28:06.122Z,1016.15
2023-01-23T00:29:06.255Z,1016.12
2023-01-23T00:30:06.145Z,1016.16
2023-01-23T00:31:06.403Z,1016.17
2023-01-23T00:32:06.206Z,1016.11
2023-01-23T00:33:06.185Z,1016.17
2023-01-23T00:34:06.555Z,1016.18
2023-01-23T00:35:06.214Z,1016.2
2023-01-23T00:36:06.225Z,1016.18
2023-01-23T00:37:06.239Z,1016.17
2023-01-23T00:38:06.283Z,1016.17
2023-01-23T00:39:06.273Z,1016.15
2023-01-23T00:40:06.274Z,1016.13
2023-01-23T00:41:06.290Z,1016.15
2023-01-23T00:42:06.308Z,1016.13
2023-01-23T00:43:06.318Z,1016.15
2023-01-23T00:44:06.340Z,1016.14
2023-01-23T00:45:06.470Z,1016.17
2023-01-23T00:46:06.390Z,1016.14
2023-01-23T00:47:06.382Z,1016.15
2023-01-23T00:48:06.381Z,1016.13
2023-01-23T00:49:06.400Z,1016.11
2023-01-23T00:50:06.407Z,1016.09
2023-01-23T00:51:06.469Z,1016.13
2023-01-23T00:52:06.435Z,1016.13
2023-01-23T00:53:06.451Z,1016.1
2023-01-23T00:54:06.471Z,1016.17
2023-01-23T00:55:06.472Z,1016.19
2023-01-23T00:56:06.498Z,1016.18
2023-01-23T00:57:06.506Z,1016.18
2023-01-23T00:58:06.514Z,1016.17
2023-01-23T00:59:06.525Z,1016.22
2023-01-23T01:00:06.541Z,1016.2
2023-01-23T01:01:06.690Z,1016.21
2023-01-23T01:02:06.568Z,1016.2
2023-01-23T01:03:06.634Z,1016.17
2023-01-23T01:04:06.595Z,1016.19
2023-01-23T01:05:06.604Z,1016.23
2023-01-23T01:06:06.632Z,1016.18
2023-01-23T01:07:06.648Z,1016.22
2023-01-23T01:08:06.656Z,1016.24
2023-01-23T01:09:06.659Z,1016.26
2023-01-23T01:10:06.670Z,1016.28
2023-01-23T01:11:06.687Z,1016.29
2023-01-23T01:12:06.698Z,1016.25
2023-01-23T01:13:06.711Z,1016.25
2023-01-23T01:14:06.722Z,1016.25
2023-01-23T01:15:06.734Z,1016.26
2023-01-23T01:16:06.904Z,1016.25
2023-01-23T01:17:06.882Z,1016.21
2023-01-23T01:18:06.789Z,1016.27
2023-01-23T01:19:06.789Z,1016.32
2023-01-23T01:20:06.802Z,1016.33
2023-01-23T01:21:06.812Z,1016.37
2023-01-23T01:22:06.829Z,1016.38
2023-01-23T01:23:06.839Z,1016.41
2023-01-23T01:24:06.855Z,1016.39
2023-01-23T01:25:06.873Z,1016.41
2023-01-23T01:26:06.881Z,1016.42
2023-01-23T01:27:06.898Z,1016.41
2023-01-23T01:28:06.911Z,1016.37
2023-01-23T01:29:06.920Z,1016.42
2023-01-23T01:30:06.934Z,1016.39
2023-01-23T01:31:07.024Z,1016.41
2023-01-23T01:32:06.958Z,1016.42
2023-01-23T01:33:07.099Z,1016.39
2023-01-23T01:34:07.386Z,1016.4
2023-01-23T01:35:06.998Z,1016.4
2023-01-23T01:36:07.007Z,1016.42
2023-01-23T01:37:07.037Z,1016.48
2023-01-23T01:38:07.037Z,1016.48
2023-01-23T01:39:07.064Z,1016.51
2023-01-23T01:40:07.072Z,1016.55
2023-01-23T01:41:07.108Z,1016.53
2023-01-23T01:42:07.093Z,1016.54
2023-01-23T01:43:07.104Z,1016.54
2023-01-23T01:44:07.139Z,1016.6
2023-01-23T01:45:07.134Z,1016.62
2023-01-23T01:46:07.149Z,1016.61
2023-01-23T01:47:07.160Z,1016.6
2023-01-23T01:48:07.168Z,1016.64
2023-01-23T01:49:07.347Z,1016.67
2023-01-23T01:50:07.223Z,1016.66
2023-01-23T01:51:07.336Z,1016.61
2023-01-23T01:52:07.233Z,1016.64
2023-01-23T01:53:07.235Z,1016.62
2023-01-23T01:54:07.254Z,1016.64
2023-01-23T01:55:07.260Z,1016.64
2023-01-23T01:56:07.279Z,1016.68
2023-01-23T01:57:07.289Z,1016.71
2023-01-23T01:58:07.301Z,1016.71
2023-01-23T01:59:07.316Z,1016.71
2023-01-23T02:00:07.330Z,1016.74
2023-01-23T02:01:07.438Z,1016.73
2023-01-23T02:02:07.370Z,1016.75
2023-01-23T02:03:07.366Z,1016.7
2023-01-23T02:04:07.379Z,1016.75
2023-01-23T02:05:07.509Z,1016.74
2023-01-23T02:06:07.406Z,1016.73
2023-01-23T02:07:07.418Z,1016.73
2023-01-23T02:08:07.432Z,1016.72
2023-01-23T02:09:07.446Z,1016.72
2023-01-23T02:10:07.461Z,1016.77
2023-01-23T02:11:07.472Z,1016.79
2023-01-23T02:12:07.487Z,1016.74
2023-01-23T02:13:07.497Z,1016.74
2023-01-23T02:14:07.512Z,1016.78
2023-01-23T02:15:07.523Z,1016.74
2023-01-23T02:16:07.553Z,1016.75
2023-01-23T02:17:07.550Z,1016.77
2023-01-23T02:18:07.565Z,1016.79
2023-01-23T02:19:07.573Z,1016.75
2023-01-23T02:22:12.563Z,1016.84
2023-01-23T02:23:12.460Z,1016.85
2023-01-23T02:24:12.476Z,1016.87
2023-01-23T02:25:12.490Z,1016.84
2023-01-23T02:26:12.502Z,1016.86
2023-01-23T02:27:12.512Z,1016.89
2023-01-23T02:28:12.578Z,1016.9
2023-01-23T02:29:12.539Z,1016.89
2023-01-23T02:30:12.555Z,1016.9
2023-01-23T02:31:12.664Z,1016.93
2023-01-23T02:32:12.579Z,1016.9
2023-01-23T02:33:12.601Z,1016.92
2023-01-23T02:34:12.609Z,1016.94
2023-01-23T02:35:12.639Z,1016.97
2023-01-23T02:36:12.634Z,1017
2023-01-23T02:37:12.659Z,1017
2023-01-23T02:38:12.797Z,1016.96
2023-01-23T02:39:12.676Z,1016.97
2023-01-23T02:40:12.686Z,1017.03
2023-01-23T02:41:12.698Z,1017.01
2023-01-23T02:42:12.712Z,1017.04
2023-01-23T02:43:12.917Z,1017.06
2023-01-23T02:44:12.735Z,1017.05
2023-01-23T02:45:12.948Z,1017.04
2023-01-23T02:46:12.782Z,1017.07
2023-01-23T02:47:12.874Z,1017.03
2023-01-23T02:48:12.938Z,1017.05
2023-01-23T02:49:12.966Z,1016.95
2023-01-23T02:50:12.970Z,1016.99
2023-01-23T02:51:12.910Z,1017.02
2023-01-23T02:52:12.888Z,1016.99
2023-01-23T02:53:12.855Z,1016.98
2023-01-23T02:54:13.046Z,1016.98
2023-01-23T02:55:12.936Z,1017.01
2023-01-23T02:56:12.890Z,1016.97
2023-01-23T02:57:12.901Z,1016.96
2023-01-23T02:58:12.916Z,1016.97
2023-01-23T02:59:13.016Z,1016.96
2023-01-23T03:00:12.949Z,1016.93
2023-01-23T03:01:12.978Z,1016.97
2023-01-23T03:02:13.024Z,1016.96
2023-01-23T03:03:12.993Z,1016.93
2023-01-23T03:04:13.002Z,1016.92
2023-01-23T03:05:13.015Z,1016.93
2023-01-23T03:06:13.025Z,1016.93
2023-01-23T03:07:13.038Z,1016.93
2023-01-23T03:08:13.064Z,1016.92
2023-01-23T03:09:13.079Z,1016.92
2023-01-23T03:10:13.193Z,1016.93
2023-01-23T03:11:13.087Z,1016.96
2023-01-23T03:12:13.097Z,1017
2023-01-23T03:13:13.108Z,1016.99
2023-01-23T03:14:13.133Z,1017.01
2023-01-23T03:15:13.154Z,1017.02
2023-01-23T03:16:13.186Z,1017.02
2023-01-23T03:17:13.162Z,1017.04
2023-01-23T03:18:13.193Z,1017.03
2023-01-23T03:19:13.190Z,1016.99
2023-01-23T03:20:13.207Z,1017.01
2023-01-23T03:21:13.223Z,1016.98
2023-01-23T03:22:13.245Z,1017
2023-01-23T03:23:13.251Z,1017.01
2023-01-23T03:24:13.263Z,1017
2023-01-23T03:25:13.272Z,1017.02
2023-01-23T03:26:13.397Z,1017.01
2023-01-23T03:27:13.305Z,1017.02
2023-01-23T03:28:13.309Z,1016.99
2023-01-23T03:29:13.323Z,1016.96
2023-01-23T03:30:13.346Z,1016.98
2023-01-23T03:31:13.399Z,1016.99
2023-01-23T03:32:13.369Z,1017
2023-01-23T03:33:13.375Z,1016.99
2023-01-23T03:34:13.393Z,1017.02
2023-01-23T03:35:13.396Z,1017.06
2023-01-23T03:36:13.416Z,1017.02
2023-01-23T03:37:13.449Z,1017.03
2023-01-23T03:38:13.443Z,1017.03
2023-01-23T03:39:13.450Z,1017.08
2023-01-23T03:40:13.461Z,1017.07
2023-01-23T03:41:13.487Z,1017.07
2023-01-23T03:42:13.613Z,1017.07
2023-01-23T03:43:13.531Z,1017.08
2023-01-23T03:44:13.512Z,1017.11
2023-01-23T03:45:13.535Z,1017.04
2023-01-23T03:46:13.561Z,1017.03
2023-01-23T03:47:13.570Z,1017.02
2023-01-23T03:48:13.575Z,1017.05
2023-01-23T03:49:13.848Z,1017.06
2023-01-23T03:50:13.594Z,1017.06
2023-01-23T03:51:13.677Z,1017.06
2023-01-23T03:52:13.620Z,1017.05
2023-01-23T03:53:13.633Z,1017.05
2023-01-23T03:54:13.846Z,1017.11
2023-01-23T03:55:13.663Z,1017.12
2023-01-23T03:56:13.670Z,1017.12
2023-01-23T03:57:13.694Z,1017.2
2023-01-23T03:58:13.820Z,1017.2
2023-01-23T03:59:13.711Z,1017.22
2023-01-23T04:00:13.780Z,1017.18
2023-01-23T04:01:13.801Z,1017.19
2023-01-23T04:02:13.757Z,1017.2
2023-01-23T04:03:13.782Z,1017.2
2023-01-23T04:04:13.780Z,1017.19
2023-01-23T04:05:13.790Z,1017.2
2023-01-23T04:06:13.805Z,1017.18
2023-01-23T04:07:13.826Z,1017.2
2023-01-23T04:08:13.833Z,1017.24
2023-01-23T04:09:13.843Z,1017.24
2023-01-23T04:10:13.862Z,1017.24
2023-01-23T04:11:13.873Z,1017.25
2023-01-23T04:12:13.884Z,1017.22
2023-01-23T04:13:13.905Z,1017.27
2023-01-23T04:14:14.036Z,1017.26
2023-01-23T04:15:13.931Z,1017.22
2023-01-23T04:16:14.024Z,1017.2
2023-01-23T04:17:13.950Z,1017.22
2023-01-23T04:18:13.964Z,1017.24
2023-01-23T04:19:13.980Z,1017.22
2023-01-23T04:20:13.994Z,1017.24
2023-01-23T04:21:14.005Z,1017.23
2023-01-23T04:22:14.020Z,1017.18
2023-01-23T04:23:14.036Z,1017.19
2023-01-23T04:24:14.048Z,1017.18
2023-01-23T04:25:14.058Z,1017.14
2023-01-23T04:26:14.068Z,1017.14
2023-01-23T04:27:14.086Z,1017.07
2023-01-23T04:28:14.101Z,1017.09
2023-01-23T04:29:14.109Z,1017.11
2023-01-23T04:30:14.323Z,1017.11
2023-01-23T04:31:14.250Z,1017.08
2023-01-23T04:32:14.150Z,1017.13
2023-01-23T04:33:14.170Z,1017.08
2023-01-23T04:34:14.179Z,1017.09
2023-01-23T04:35:14.191Z,1017.09
2023-01-23T04:36:14.201Z,1017.06
2023-01-23T04:37:14.220Z,1017.08
2023-01-23T04:38:14.233Z,1017.08
2023-01-23T04:39:14.248Z,1017.09
2023-01-23T04:40:14.262Z,1017.1
2023-01-23T04:41:14.269Z,1017.12
2023-01-23T04:42:14.298Z,1017.18
2023-01-23T04:43:14.299Z,1017.18
2023-01-23T04:44:14.310Z,1017.12
2023-01-23T04:45:14.322Z,1017.1
2023-01-23T04:46:14.480Z,1017.1
2023-01-23T04:47:14.350Z,1017.1
2023-01-23T04:48:14.365Z,1017.12
2023-01-23T04:49:14.374Z,1017.08
2023-01-23T04:50:14.387Z,1017.11
2023-01-23T04:51:14.424Z,1017.05
2023-01-23T04:52:14.419Z,1017.05
2023-01-23T04:53:14.429Z,1017.03
2023-01-23T04:54:14.911Z,1017.05
2023-01-23T04:55:14.456Z,1017.03
2023-01-23T04:56:14.469Z,1017.11
2023-01-23T04:57:14.482Z,1017.09
2023-01-23T04:58:14.497Z,1017.08
2023-01-23T04:59:14.508Z,1017.12
2023-01-23T05:00:14.525Z,1017.11
2023-01-23T05:01:14.559Z,1017.15
2023-01-23T05:02:14.693Z,1017.15
2023-01-23T05:03:14.560Z,1017.12
2023-01-23T05:04:14.577Z,1017.13
2023-01-23T05:05:14.586Z,1017.17
2023-01-23T05:06:14.600Z,1017.15
2023-01-23T05:07:14.610Z,1017.11
2023-01-23T05:08:14.626Z,1017.11
2023-01-23T05:09:14.643Z,1017.16
2023-01-23T05:10:14.660Z,1017.11
2023-01-23T05:11:14.669Z,1017.09
2023-01-23T05:12:14.679Z,1017.12
2023-01-23T05:13:14.694Z,1017.13
2023-01-23T05:14:14.705Z,1017.16
2023-01-23T05:15:14.718Z,1017.14
2023-01-23T05:16:14.809Z,1017.17
2023-01-23T05:17:14.742Z,1017.14
2023-01-23T05:18:14.779Z,1017.2
2023-01-23T05:19:14.865Z,1017.17
2023-01-23T05:20:14.784Z,1017.21
2023-01-23T05:21:14.796Z,1017.21
2023-01-23T05:22:14.806Z,1017.22
2023-01-23T05:23:14.826Z,1017.22
2023-01-23T05:24:14.832Z,1017.18
2023-01-23T05:25:14.851Z,1017.2
2023-01-23T05:26:14.858Z,1017.23
2023-01-23T05:27:14.877Z,1017.19
2023-01-23T05:28:14.883Z,1017.21
2023-01-23T05:29:14.905Z,1017.21
2023-01-23T05:30:14.916Z,1017.16
2023-01-23T05:31:15.053Z,1017.17
2023-01-23T05:32:14.941Z,1017.19
2023-01-23T05:33:14.958Z,1017.2
2023-01-23T05:34:15.097Z,1017.21
2023-01-23T05:35:14.980Z,1017.23
2023-01-23T05:36:17.012Z,1017.21
2023-01-23T05:37:15.007Z,1017.25
2023-01-23T05:38:15.018Z,1017.25
2023-01-23T05:39:15.041Z,1017.26
2023-01-23T05:40:15.054Z,1017.28
2023-01-23T05:41:15.059Z,1017.3
2023-01-23T05:42:15.074Z,1017.28
2023-01-23T05:43:15.098Z,1017.26
2023-01-23T05:44:15.098Z,1017.28
2023-01-23T05:45:15.121Z,1017.24
2023-01-23T05:46:15.189Z,1017.24
2023-01-23T05:47:15.136Z,1017.25
2023-01-23T05:48:15.152Z,1017.26
2023-01-23T05:49:15.171Z,1017.23
2023-01-23T05:50:15.299Z,1017.2
2023-01-23T05:51:15.306Z,1017.19
2023-01-23T05:52:15.210Z,1017.26
2023-01-23T05:53:15.215Z,1017.26
2023-01-23T05:54:15.580Z,1017.24
2023-01-23T05:55:15.242Z,1017.29
2023-01-23T05:56:15.255Z,1017.31
2023-01-23T05:57:15.266Z,1017.37
2023-01-23T05:58:16.080Z,1017.43
2023-01-23T05:59:15.298Z,1017.52
2023-01-23T06:00:15.321Z,1017.51
2023-01-23T06:01:15.321Z,1017.49
2023-01-23T06:02:15.397Z,1017.51
2023-01-23T06:03:15.401Z,1017.49
2023-01-23T06:04:15.364Z,1017.48
2023-01-23T06:05:15.373Z,1017.55
2023-01-23T06:06:15.514Z,1017.55
2023-01-23T06:07:15.400Z,1017.56
2023-01-23T06:08:15.416Z,1017.53
2023-01-23T06:09:15.429Z,1017.52
2023-01-23T06:10:15.437Z,1017.55
2023-01-23T06:11:15.450Z,1017.56
2023-01-23T06:12:15.465Z,1017.59
2023-01-23T06:13:15.482Z,1017.59
2023-01-23T06:14:15.492Z,1017.63
2023-01-23T06:15:15.502Z,1017.65
2023-01-23T06:16:15.564Z,1017.66
2023-01-23T06:17:15.539Z,1017.67
2023-01-23T06:18:15.580Z,1017.68
2023-01-23T06:19:15.562Z,1017.7
2023-01-23T06:20:15.571Z,1017.7
2023-01-23T06:21:15.583Z,1017.71
2023-01-23T06:22:15.717Z,1017.73
2023-01-23T06:23:15.606Z,1017.74
2023-01-23T06:24:15.622Z,1017.78
2023-01-23T06:25:15.641Z,1017.8
2023-01-23T06:26:15.650Z,1017.78
2023-01-23T06:27:15.663Z,1017.77
2023-01-23T06:28:15.677Z,1017.83
2023-01-23T06:29:15.684Z,1017.84
2023-01-23T06:30:15.697Z,1017.84
2023-01-23T06:31:15.893Z,1017.81
2023-01-23T06:32:15.732Z,1017.84
2023-01-23T06:33:15.738Z,1017.8
2023-01-23T06:34:15.776Z,1017.83
2023-01-23T06:35:15.766Z,1017.86
2023-01-23T06:36:15.781Z,1017.84
2023-01-23T06:37:15.790Z,1017.82
2023-01-23T06:38:15.929Z,1017.82
2023-01-23T06:39:15.820Z,1017.81
2023-01-23T06:40:15.835Z,1017.8
2023-01-23T06:41:15.878Z,1017.8
2023-01-23T06:42:15.864Z,1017.8
2023-01-23T06:43:15.874Z,1017.85
2023-01-23T06:44:15.886Z,1017.87
2023-01-23T06:45:15.897Z,1017.9
2023-01-23T06:46:15.944Z,1017.86
2023-01-23T06:47:15.924Z,1017.88
2023-01-23T06:48:15.937Z,1017.91
2023-01-23T06:49:15.963Z,1017.92
2023-01-23T06:50:15.962Z,1017.99
2023-01-23T06:51:16.021Z,1017.98
2023-01-23T06:52:15.993Z,1018.03
2023-01-23T06:53:16.003Z,1018.06
2023-01-23T06:54:16.553Z,1018.07
2023-01-23T06:55:16.032Z,1018.1
2023-01-23T06:56:16.052Z,1018.15
2023-01-23T06:57:16.055Z,1018.13
2023-01-23T06:58:16.173Z,1018.17
2023-01-23T06:59:16.082Z,1018.2
2023-01-23T07:00:16.092Z,1018.25
2023-01-23T07:01:16.217Z,1018.27
2023-01-23T07:02:16.121Z,1018.26
2023-01-23T07:03:16.218Z,1018.31
2023-01-23T07:04:16.145Z,1018.29
2023-01-23T07:05:16.159Z,1018.36
2023-01-23T07:06:16.176Z,1018.32
2023-01-23T07:07:16.185Z,1018.36
2023-01-23T07:08:16.197Z,1018.35
2023-01-23T07:09:16.214Z,1018.4
2023-01-23T07:10:16.344Z,1018.38
2023-01-23T07:11:16.237Z,1018.42
2023-01-23T07:12:16.251Z,1018.41
2023-01-23T07:13:16.267Z,1018.44
2023-01-23T07:14:16.278Z,1018.44
2023-01-23T07:15:16.294Z,1018.48
2023-01-23T07:16:16.325Z,1018.45
2023-01-23T07:17:16.318Z,1018.47
2023-01-23T07:18:16.332Z,1018.48
2023-01-23T07:19:16.344Z,1018.49
2023-01-23T07:20:16.356Z,1018.49
2023-01-23T07:21:16.370Z,1018.44
2023-01-23T07:22:16.382Z,1018.45
2023-01-23T07:23:16.395Z,1018.45
2023-01-23T07:24:16.411Z,1018.48
2023-01-23T07:25:16.425Z,1018.48
2023-01-23T07:26:16.557Z,1018.49
2023-01-23T07:27:16.472Z,1018.51
2023-01-23T07:28:16.466Z,1018.51
2023-01-23T07:29:16.474Z,1018.52
2023-01-23T07:30:16.489Z,1018.52
2023-01-23T07:31:16.617Z,1018.56
2023-01-23T07:32:16.519Z,1018.53
2023-01-23T07:33:16.531Z,1018.57
2023-01-23T07:34:16.542Z,1018.59
2023-01-23T07:35:16.556Z,1018.55
2023-01-23T07:36:16.565Z,1018.59
2023-01-23T07:37:16.579Z,1018.68
2023-01-23T07:38:16.592Z,1018.67
2023-01-23T07:39:16.603Z,1018.68
2023-01-23T07:40:16.619Z,1018.67
2023-01-23T07:41:16.634Z,1018.66
2023-01-23T07:42:16.772Z,1018.74
2023-01-23T07:43:16.661Z,1018.7
2023-01-23T07:44:16.672Z,1018.71
2023-01-23T07:45:16.686Z,1018.67
2023-01-23T07:46:16.746Z,1018.73
2023-01-23T07:47:16.718Z,1018.74
2023-01-23T07:48:16.741Z,1018.74
2023-01-23T07:49:16.743Z,1018.74
2023-01-23T07:50:16.754Z,1018.74
2023-01-23T07:51:16.788Z,1018.78
2023-01-23T07:52:16.789Z,1018.74
2023-01-23T07:53:16.789Z,1018.75
2023-01-23T07:54:17.254Z,1018.74
2023-01-23T07:55:16.818Z,1018.78
2023-01-23T07:56:16.829Z,1018.75
2023-01-23T07:57:16.841Z,1018.77
2023-01-23T07:58:16.979Z,1018.82
2023-01-23T07:59:16.867Z,1018.82
2023-01-23T08:00:16.886Z,1018.79
2023-01-23T08:01:16.965Z,1018.8
2023-01-23T08:02:16.907Z,1018.86
2023-01-23T08:03:16.926Z,1018.83
2023-01-23T08:04:16.980Z,1018.86
2023-01-23T08:05:16.945Z,1018.84
2023-01-23T08:06:16.964Z,1018.85
2023-01-23T08:07:16.974Z,1018.88
2023-01-23T08:08:16.985Z,1018.88
2023-01-23T08:09:17.001Z,1018.84
2023-01-23T08:10:17.081Z,1018.83
2023-01-23T08:11:17.030Z,1018.81
2023-01-23T08:12:17.042Z,1018.83
2023-01-23T08:13:17.052Z,1018.88
2023-01-23T08:14:17.184Z,1018.89
2023-01-23T08:15:17.077Z,1018.9
2023-01-23T08:16:17.161Z,1018.92
2023-01-23T08:17:17.105Z,1018.95
2023-01-23T08:18:17.129Z,1018.95
2023-01-23T08:19:17.140Z,1018.96
2023-01-23T08:20:17.189Z,1018.92
2023-01-23T08:21:17.172Z,1018.95
2023-01-23T08:22:17.173Z,1018.96
2023-01-23T08:23:17.186Z,1018.95
2023-01-23T08:24:17.196Z,1019.03
2023-01-23T08:25:17.210Z,1018.96
2023-01-23T08:26:17.221Z,1018.99
2023-01-23T08:27:17.236Z,1018.99
2023-01-23T08:28:17.263Z,1018.97
2023-01-23T08:29:17.262Z,1018.96
2023-01-23T08:30:17.631Z,1018.95
2023-01-23T08:31:17.373Z,1018.96
2023-01-23T08:32:17.303Z,1018.94
2023-01-23T08:33:17.321Z,1018.9
2023-01-23T08:34:17.326Z,1018.91
2023-01-23T08:35:17.342Z,1018.94
2023-01-23T08:36:17.356Z,1018.88
2023-01-23T08:37:17.367Z,1018.92
2023-01-23T08:38:17.377Z,1018.9
2023-01-23T08:39:17.394Z,1018.92
2023-01-23T08:40:17.404Z,1018.93
2023-01-23T08:41:17.420Z,1018.93
2023-01-23T08:42:17.432Z,1018.93
2023-01-23T08:43:17.445Z,1018.92
2023-01-23T08:44:17.462Z,1018.92
2023-01-23T08:45:17.476Z,1018.91
2023-01-23T08:46:17.602Z,1018.9
2023-01-23T08:47:17.498Z,1018.93
2023-01-23T08:48:17.510Z,1018.94
2023-01-23T08:49:17.527Z,1018.93
2023-01-23T08:50:17.686Z,1018.92
2023-01-23T08:51:17.614Z,1018.92
2023-01-23T08:52:17.571Z,1018.91
2023-01-23T08:53:17.581Z,1018.93
2023-01-23T08:54:17.791Z,1018.94
2023-01-23T08:55:17.605Z,1018.94
2023-01-23T08:56:17.631Z,1018.95
2023-01-23T08:57:17.638Z,1018.94
2023-01-23T08:58:17.641Z,1018.96
2023-01-23T08:59:17.658Z,1018.96
2023-01-23T09:00:17.893Z,1018.99
2023-01-23T09:01:17.743Z,1018.95
2023-01-23T09:02:17.912Z,1018.97
2023-01-23T09:03:17.714Z,1018.96
2023-01-23T09:04:17.723Z,1019.01
2023-01-23T09:05:17.736Z,1019.05
2023-01-23T09:06:17.750Z,1019
2023-01-23T09:07:17.768Z,1019
2023-01-23T09:08:17.775Z,1019
2023-01-23T09:09:17.788Z,1019
2023-01-23T09:10:18.030Z,1019.02
2023-01-23T09:11:17.818Z,1019.02
2023-01-23T09:12:17.832Z,1019.03
2023-01-23T09:13:17.843Z,1019
2023-01-23T09:14:17.864Z,1019.05
2023-01-23T09:15:17.868Z,1019.04
2023-01-23T09:16:17.903Z,1019.04
2023-01-23T09:17:17.896Z,1019.04
2023-01-23T09:18:18.029Z,1019.07
2023-01-23T09:19:17.920Z,1019.13
2023-01-23T09:20:18.145Z,1019.11
2023-01-23T09:21:17.943Z,1019.1
2023-01-23T09:22:17.959Z,1019.1
2023-01-23T09:23:17.974Z,1019.1
2023-01-23T09:24:17.984Z,1019.15
2023-01-23T09:25:17.997Z,1019.16
2023-01-23T09:26:19.816Z,1019.17
2023-01-23T09:27:18.022Z,1019.16
2023-01-23T09:28:18.047Z,1019.21
2023-01-23T09:29:18.053Z,1019.24
2023-01-23T09:30:18.430Z,1019.26
2023-01-23T09:31:18.115Z,1019.28
2023-01-23T09:32:18.090Z,1019.3
2023-01-23T09:33:18.149Z,1019.32
2023-01-23T09:34:18.261Z,1019.34
2023-01-23T09:35:18.133Z,1019.38
2023-01-23T09:36:18.150Z,1019.39
2023-01-23T09:37:18.155Z,1019.37
2023-01-23T09:38:18.169Z,1019.37
2023-01-23T09:39:18.189Z,1019.34
2023-01-23T09:40:18.523Z,1019.4
2023-01-23T09:41:18.225Z,1019.37
2023-01-23T09:42:18.228Z,1019.39
2023-01-23T09:43:18.234Z,1019.33
2023-01-23T09:44:18.252Z,1019.38
2023-01-23T09:45:18.264Z,1019.37
2023-01-23T09:46:18.409Z,1019.4
2023-01-23T09:47:18.287Z,1019.39
2023-01-23T09:48:18.304Z,1019.41
2023-01-23T09:49:18.312Z,1019.43
2023-01-23T09:50:18.672Z,1019.45
2023-01-23T09:51:18.401Z,1019.45
2023-01-23T09:52:18.355Z,1019.48
2023-01-23T09:53:18.365Z,1019.43
2023-01-23T09:54:18.731Z,1019.47
2023-01-23T09:55:18.395Z,1019.49
2023-01-23T09:56:18.405Z,1019.47
2023-01-23T09:57:18.419Z,1019.45
2023-01-23T09:58:18.431Z,1019.48
2023-01-23T09:59:18.475Z,1019.49
2023-01-23T10:00:18.679Z,1019.5
2023-01-23T10:01:18.500Z,1019.46
2023-01-23T10:02:18.524Z,1019.46
2023-01-23T10:03:18.497Z,1019.46
2023-01-23T10:04:18.512Z,1019.49
2023-01-23T10:05:18.524Z,1019.47
2023-01-23T10:06:18.662Z,1019.52
2023-01-23T10:07:19.421Z,1019.5
2023-01-23T10:08:18.567Z,1019.52
2023-01-23T10:09:18.574Z,1019.53
2023-01-23T10:10:18.589Z,1019.51
2023-01-23T10:11:18.599Z,1019.52
2023-01-23T10:12:18.617Z,1019.57
2023-01-23T10:13:18.628Z,1019.57
2023-01-23T10:14:18.644Z,1019.59
2023-01-23T10:15:18.916Z,1019.56
2023-01-23T10:16:18.717Z,1019.61
2023-01-23T10:17:18.742Z,1019.58
2023-01-23T10:18:18.692Z,1019.6
2023-01-23T10:19:18.707Z,1019.57
2023-01-23T10:20:18.989Z,1019.56
2023-01-23T10:21:18.733Z,1019.53
2023-01-23T10:22:22.933Z,1019.59
2023-01-23T10:23:18.761Z,1019.51
2023-01-23T10:24:18.771Z,1019.46
2023-01-23T10:25:19.021Z,1019.47
2023-01-23T10:26:18.806Z,1019.46
2023-01-23T10:27:18.813Z,1019.46
2023-01-23T10:28:18.824Z,1019.51
2023-01-23T10:29:18.842Z,1019.44
2023-01-23T10:30:19.232Z,1019.46
2023-01-23T10:31:18.980Z,1019.48
2023-01-23T10:32:18.877Z,1019.44
2023-01-23T10:33:18.897Z,1019.43
2023-01-23T10:34:18.907Z,1019.46
2023-01-23T10:35:19.262Z,1019.45
2023-01-23T10:36:21.634Z,1019.48
2023-01-23T10:37:18.949Z,1019.47
2023-01-23T10:38:19.087Z,1019.43
2023-01-23T10:39:18.995Z,1019.45
2023-01-23T10:40:19.227Z,1019.41
2023-01-23T10:41:19.220Z,1019.45
2023-01-23T10:42:19.010Z,1019.48
2023-01-23T10:43:19.024Z,1019.45
2023-01-23T10:44:19.037Z,1019.43
2023-01-23T10:45:19.402Z,1019.48
2023-01-23T10:46:19.161Z,1019.41
2023-01-23T10:47:19.084Z,1019.42
2023-01-23T10:48:19.090Z,1019.44
2023-01-23T10:49:19.102Z,1019.4
2023-01-23T10:50:19.115Z,1019.43
2023-01-23T10:51:19.152Z,1019.46
2023-01-23T10:52:20.656Z,1019.42
2023-01-23T10:53:19.155Z,1019.42
2023-01-23T10:54:31.104Z,1019.44
2023-01-23T10:55:19.555Z,1019.45
2023-01-23T10:56:19.195Z,1019.45
2023-01-23T10:57:19.209Z,1019.46
2023-01-23T10:58:19.220Z,1019.45
2023-01-23T10:59:19.234Z,1019.44
2023-01-23T11:00:19.247Z,1019.43
2023-01-23T11:01:19.304Z,1019.45
2023-01-23T11:02:19.389Z,1019.39
2023-01-23T11:03:19.299Z,1019.39
2023-01-23T11:04:19.302Z,1019.4
2023-01-23T11:05:19.638Z,1019.37
2023-01-23T11:06:19.325Z,1019.42
2023-01-23T11:07:19.340Z,1019.39
2023-01-23T11:08:19.356Z,1019.38
2023-01-23T11:09:19.366Z,1019.37
2023-01-23T11:10:19.501Z,1019.37
2023-01-23T11:11:19.392Z,1019.37
2023-01-23T11:12:19.410Z,1019.36
2023-01-23T11:13:19.417Z,1019.34
2023-01-23T11:14:19.433Z,1019.35
2023-01-23T11:15:19.715Z,1019.38
2023-01-23T11:16:19.518Z,1019.33
2023-01-23T11:17:19.470Z,1019.4
2023-01-23T11:18:19.485Z,1019.39
2023-01-23T11:19:19.508Z,1019.36
2023-01-23T11:20:19.513Z,1019.42
2023-01-23T11:21:19.525Z,1019.39
2023-01-23T11:22:19.537Z,1019.4
2023-01-23T11:23:19.553Z,1019.37
2023-01-23T11:24:24.762Z,1019.42
2023-01-23T11:25:19.886Z,1019.34
2023-01-23T11:26:19.711Z,1019.34
2023-01-23T11:27:19.604Z,1019.32
2023-01-23T11:28:19.631Z,1019.3
2023-01-23T11:29:19.636Z,1019.31
2023-01-23T11:30:19.676Z,1019.26
2023-01-23T11:31:19.834Z,1019.24
2023-01-23T11:32:19.818Z,1019.23
2023-01-23T11:33:19.702Z,1019.2
2023-01-23T11:34:19.697Z,1019.22
2023-01-23T11:35:19.917Z,1019.22
2023-01-23T11:36:19.729Z,1019.19
2023-01-23T11:37:19.732Z,1019.19
2023-01-23T11:38:27.474Z,1019.16
2023-01-23T11:39:19.764Z,1019.17
2023-01-23T11:40:19.790Z,1019.16
2023-01-23T11:41:19.785Z,1019.16
2023-01-23T11:42:19.928Z,1019.12
2023-01-23T11:43:19.814Z,1019.11
2023-01-23T11:44:21.063Z,1019.15
2023-01-23T11:45:20.127Z,1019.1
2023-01-23T11:46:19.931Z,1019.12
2023-01-23T11:47:19.867Z,1019.03
2023-01-23T11:48:19.878Z,1019.1
2023-01-23T11:49:19.890Z,1019.1
2023-01-23T11:50:19.906Z,1019.13
2023-01-23T11:51:19.946Z,1019.13
2023-01-23T11:52:19.937Z,1019.13
2023-01-23T11:53:21.184Z,1019.09
2023-01-23T11:54:20.159Z,1019.1
2023-01-23T11:55:20.270Z,1019.12
2023-01-23T11:56:19.992Z,1019.13
2023-01-23T11:57:20.016Z,1019.15
2023-01-23T11:58:20.133Z,1019.1
2023-01-23T11:59:20.027Z,1019.11
2023-01-23T12:00:20.356Z,1019.09
2023-01-23T12:01:20.051Z,1019.09
2023-01-23T12:02:20.096Z,1019.08
2023-01-23T12:03:20.081Z,1019.1
2023-01-23T12:04:20.093Z,1019.12
2023-01-23T12:05:20.483Z,1019.09
2023-01-23T12:06:20.619Z,1019.1
2023-01-23T12:07:20.130Z,1019.09
2023-01-23T12:08:20.163Z,1019.07
2023-01-23T12:09:20.205Z,1019.06
2023-01-23T12:10:20.169Z,1019.07